Osakis, Minnesota
Current Conditions -  °F | °C
As of 6:53 PM on Tuesday 25 Nov 2014 (Local Time) from KAXN Reporting Station
Overcast Overcast  
Wind Chill: -13°   Ceiling: 3600
Heat Index: -7°   Visibility: 10mi
Dew Point: -11°   Wind: 12mph
Humidity: 71%   Direction: 130°SE
Pressure: 29.92"   Gusts: NA
Location:  45.87°N, 95.15°W
Report Text: KAXN 260053Z AUTO 13010KT 10SM BKN036 OVC120 M07/M11 A2992 RMK AO2 SLP161 T10671111
Loading
Personal Weather Stations






























Interactive Weather Map New forecast layout! Learn more

10-Day Weather Forecast

Advertisements
Track Severe Weather on mobile